Главная страница
METAR-TAF:

METAR-TAF

Аэропорты :

Хасвик, Норвегия

широта: 70-29N, долгота: 022-09E, высота над уровнем моря: 10 м

Текущие метеонаблюдения

Эта сводка был подготовлена 38 минут назад, в 14:50 UTC
Ветер 6 Узел от западно-северо-западный, изменяющийся между западный-юго-западный и северо-западный
Температура 11°C
Влажность 76%
Давление 1015 hPa
Видимость 10 км и более

METAR: ENHK 221450Z AUTO 29006KT 250V310 9999 NCD 11/07 Q1015

Время: 17:28 (15:28 UTC)

Прогноз

Эта сводка был подготовлена 28 часа и 28 минут назад, в 11:00 UTC
Прогноз действительный с 21-го 12 UTC до 21-го 19 UTC
Ветер 9 Узел от западно-северо-западный
Видимость 10 км и более
Отдельные облака на высоте 1500 фута
Рассеянная облачность на высоте 3000 фута

TAF: ENHK 211100Z 2112/2119 30009KT 9999 SCT015 BKN030

Метеонаблюдения и прогнозы для более 4000 аэропортов (сводки METAR и TAF).

Имеющиеся станции представлены на карте желтыми и красными точками.

Чтобы увидеть название станции, наведите на нее мышь.

Затем щелкните, чтобы увидеть метеонаблюдения и метеопрогнозы.

Управление картой: чтобы увеличить масштаб, щелкните зеленые кнопки с черным крестиком; чтобы уменьшить масштаб, щелкните зеленую кнопку с тире; для просмотра соседних карт щелкайте зеленые стрелки.


METAR-TAF: